createdAt,value
2022-10-12T00:00:45.862Z,-117.38
2022-10-12T00:01:45.911Z,-116.97
2022-10-12T00:02:42.821Z,-117.14
2022-10-12T00:03:42.782Z,-117.25
2022-10-12T00:04:42.803Z,-117.50
2022-10-12T00:05:42.803Z,-117.49
2022-10-12T00:06:42.764Z,-117.50
2022-10-12T00:07:42.733Z,-117.46
2022-10-12T00:08:42.772Z,-117.42
2022-10-12T00:09:42.702Z,-117.30
2022-10-12T00:10:42.751Z,-117.32
2022-10-12T00:11:42.702Z,-117.26
2022-10-12T00:12:42.712Z,-117.22
2022-10-12T00:13:42.674Z,-117.18
2022-10-12T00:14:42.659Z,-117.14
2022-10-12T00:15:42.643Z,-117.02
2022-10-12T00:16:42.625Z,-116.75
2022-10-12T00:17:42.656Z,-116.28
2022-10-12T00:18:42.604Z,-116.21
2022-10-12T00:19:42.584Z,-116.10
2022-10-12T00:20:45.586Z,-116.04
2022-10-12T00:21:45.594Z,-115.76
2022-10-12T00:22:42.544Z,-115.70
2022-10-12T00:23:42.545Z,-115.73
2022-10-12T00:24:43.091Z,-115.81
2022-10-12T00:25:42.495Z,-115.83
2022-10-12T00:26:42.486Z,-115.84
2022-10-12T00:27:42.506Z,-115.44
2022-10-12T00:28:42.538Z,-115.65
2022-10-12T00:29:42.450Z,-115.79
2022-10-12T00:30:42.437Z,-115.85
2022-10-12T00:31:42.417Z,-115.93
2022-10-12T00:32:42.414Z,-116.12
2022-10-12T00:33:42.398Z,-116.09
2022-10-12T00:34:42.388Z,-116.04
2022-10-12T00:35:42.347Z,-116.15
2022-10-12T00:36:42.368Z,-116.12
2022-10-12T00:37:42.340Z,-116.34
2022-10-12T00:38:42.379Z,-116.24
2022-10-12T00:39:42.319Z,-116.34
2022-10-12T00:40:45.299Z,-116.46
2022-10-12T00:41:45.287Z,-116.28
2022-10-12T00:42:42.271Z,-116.26
2022-10-12T00:43:42.259Z,-116.40
2022-10-12T00:44:42.291Z,-116.34
2022-10-12T00:45:42.271Z,-116.46
2022-10-12T00:46:42.223Z,-116.49
2022-10-12T00:47:42.241Z,-116.38
2022-10-12T00:48:42.182Z,-116.42
2022-10-12T00:49:42.182Z,-116.59
2022-10-12T00:50:42.162Z,-116.43
2022-10-12T00:51:42.159Z,-116.37
2022-10-12T00:52:42.134Z,-116.53
2022-10-12T00:53:42.124Z,-116.61
2022-10-12T00:54:42.103Z,-116.55
2022-10-12T00:55:42.134Z,-116.75
2022-10-12T00:56:42.085Z,-116.76
2022-10-12T00:57:46.738Z,-116.74
2022-10-12T00:58:43.083Z,-116.66
2022-10-12T00:59:42.024Z,-116.65
2022-10-12T01:00:45.092Z,-116.75
2022-10-12T01:01:45.025Z,-116.73
2022-10-12T01:02:42.009Z,-116.78
2022-10-12T01:03:41.996Z,-116.84
2022-10-12T01:04:41.974Z,-116.75
2022-10-12T01:05:41.996Z,-116.73
2022-10-12T01:06:41.954Z,-116.92
2022-10-12T01:07:41.939Z,-116.82
2022-10-12T01:08:41.924Z,-116.38
2022-10-12T01:09:41.886Z,-116.62
2022-10-12T01:10:41.937Z,-116.74
2022-10-12T01:11:41.861Z,-116.72
2022-10-12T01:12:41.872Z,-116.75
2022-10-12T01:13:41.859Z,-116.83
2022-10-12T01:14:41.840Z,-116.84
2022-10-12T01:15:41.849Z,-116.95
2022-10-12T01:16:41.818Z,-116.95
2022-10-12T01:17:41.799Z,-116.84
2022-10-12T01:18:41.780Z,-116.80
2022-10-12T01:19:41.769Z,-116.82
2022-10-12T01:20:44.809Z,-116.82
2022-10-12T01:21:44.740Z,-116.40
2022-10-12T01:22:41.730Z,-116.45
2022-10-12T01:23:41.738Z,-116.49
2022-10-12T01:24:41.702Z,-116.45
2022-10-12T01:25:41.690Z,-116.50
2022-10-12T01:26:41.715Z,-116.59
2022-10-12T01:27:41.661Z,-116.49
2022-10-12T01:28:41.680Z,-116.54
2022-10-12T01:29:41.651Z,-116.49
2022-10-12T01:30:41.613Z,-116.27
2022-10-12T01:31:41.642Z,-116.32
2022-10-12T01:32:41.592Z,-116.23
2022-10-12T01:33:41.573Z,-116.23
2022-10-12T01:34:41.574Z,-116.12
2022-10-12T01:35:41.564Z,-115.98
2022-10-12T01:36:41.605Z,-115.94
2022-10-12T01:37:41.534Z,-115.81
2022-10-12T01:38:41.497Z,-115.73
2022-10-12T01:39:41.502Z,-115.48
2022-10-12T01:40:44.499Z,-115.39
2022-10-12T01:41:44.504Z,-115.05
2022-10-12T01:42:41.464Z,-114.98
2022-10-12T01:43:41.440Z,-114.83
2022-10-12T01:44:42.918Z,-114.70
2022-10-12T01:45:41.416Z,-114.53
2022-10-12T01:46:41.408Z,-114.21
2022-10-12T01:47:41.382Z,-114.15
2022-10-12T01:48:41.367Z,-113.80
2022-10-12T01:49:41.357Z,-113.48
2022-10-12T01:50:41.368Z,-113.27
2022-10-12T01:51:41.347Z,-113.02
2022-10-12T01:52:41.328Z,-112.76
2022-10-12T01:53:41.295Z,-112.66
2022-10-12T01:54:41.350Z,-112.47
2022-10-12T01:55:41.277Z,-112.42
2022-10-12T01:56:41.246Z,-112.35
2022-10-12T01:57:41.362Z,-112.12
2022-10-12T01:58:41.235Z,-111.92
2022-10-12T01:59:41.220Z,-111.71
2022-10-12T02:00:44.293Z,-111.72
2022-10-12T02:01:44.198Z,-111.30
2022-10-12T02:02:41.181Z,-111.14
2022-10-12T02:03:41.150Z,-111.05
2022-10-12T02:04:41.146Z,-110.99
2022-10-12T02:05:41.179Z,-110.88
2022-10-12T02:06:41.161Z,-110.71
2022-10-12T02:07:41.092Z,-110.58
2022-10-12T02:08:41.091Z,-110.41
2022-10-12T02:09:41.073Z,-110.25
2022-10-12T02:10:41.092Z,-110.07
2022-10-12T02:11:41.074Z,-109.78
2022-10-12T02:12:41.024Z,-109.66
2022-10-12T02:13:41.012Z,-109.42
2022-10-12T02:14:41.026Z,-109.02
2022-10-12T02:15:41.024Z,-108.61
2022-10-12T02:16:41.004Z,-108.58
2022-10-12T02:17:41.054Z,-108.61
2022-10-12T02:18:41.019Z,-108.39
2022-10-12T02:19:40.944Z,-108.15
2022-10-12T02:20:43.925Z,-107.99
2022-10-12T02:21:43.920Z,-107.76
2022-10-12T02:22:40.914Z,-107.50
2022-10-12T02:23:40.884Z,-107.46
2022-10-12T02:24:40.896Z,-107.23
2022-10-12T02:25:40.869Z,-107.01
2022-10-12T02:26:40.848Z,-106.94
2022-10-12T02:27:41.061Z,-106.60
2022-10-12T02:28:40.861Z,-106.39
2022-10-12T02:29:40.796Z,-106.16
2022-10-12T02:30:40.829Z,-105.97
2022-10-12T02:31:40.778Z,-105.67
2022-10-12T02:32:40.748Z,-105.60
2022-10-12T02:33:40.740Z,-105.18
2022-10-12T02:34:40.747Z,-105.04
2022-10-12T02:35:40.769Z,-104.85
2022-10-12T02:36:40.728Z,-104.54
2022-10-12T02:37:40.914Z,-104.37
2022-10-12T02:38:40.690Z,-104.19
2022-10-12T02:39:40.669Z,-102.76
2022-10-12T02:40:43.712Z,-102.76
2022-10-12T02:41:43.643Z,-102.39
2022-10-12T02:43:08.259Z,-102.34
2022-10-12T02:43:41.631Z,-102.27
2022-10-12T02:44:40.612Z,-102.22
2022-10-12T02:45:40.646Z,-102.25
2022-10-12T02:46:40.573Z,-102.32
2022-10-12T02:47:40.646Z,-102.22
2022-10-12T02:48:40.542Z,-102.11
2022-10-12T02:49:40.567Z,-102.05
2022-10-12T02:50:40.533Z,-101.94
2022-10-12T02:51:40.543Z,-101.91
2022-10-12T02:52:40.502Z,-101.97
2022-10-12T02:53:40.478Z,-101.87
2022-10-12T02:54:40.473Z,-101.82
2022-10-12T02:55:40.443Z,-101.68
2022-10-12T02:56:40.491Z,-101.76
2022-10-12T02:57:40.595Z,-101.79
2022-10-12T02:58:40.405Z,-101.72
2022-10-12T02:59:40.395Z,-101.56
2022-10-12T03:00:43.375Z,-101.56
2022-10-12T03:01:43.562Z,-101.40
2022-10-12T03:02:40.357Z,-101.47
2022-10-12T03:03:40.345Z,-101.48
2022-10-12T03:04:40.336Z,-101.53
2022-10-12T03:05:40.332Z,-101.53
2022-10-12T03:06:40.307Z,-101.59
2022-10-12T03:07:40.794Z,-101.43
2022-10-12T03:08:40.327Z,-101.34
2022-10-12T03:09:40.301Z,-101.13
2022-10-12T03:10:40.247Z,-101.11
2022-10-12T03:11:40.228Z,-100.79
2022-10-12T03:12:40.257Z,-100.62
2022-10-12T03:13:40.219Z,-100.46
2022-10-12T03:14:40.232Z,-99.01
2022-10-12T03:15:40.199Z,-98.84
2022-10-12T03:16:40.165Z,-98.79
2022-10-12T03:17:40.518Z,-98.50
2022-10-12T03:18:40.209Z,-98.41
2022-10-12T03:19:40.124Z,-98.27
2022-10-12T03:20:43.102Z,-98.24
2022-10-12T03:21:43.130Z,-97.87
2022-10-12T03:22:40.091Z,-97.90
2022-10-12T03:23:40.072Z,-97.81
2022-10-12T03:24:40.100Z,-97.67
2022-10-12T03:25:40.088Z,-97.54
2022-10-12T03:26:40.041Z,-97.38
2022-10-12T03:27:40.579Z,-97.28
2022-10-12T03:28:40.077Z,-97.10
2022-10-12T03:29:39.983Z,-95.70
2022-10-12T03:30:40.052Z,-95.56
2022-10-12T03:31:39.996Z,-95.41
2022-10-12T03:32:40.039Z,-95.30
2022-10-12T03:33:39.967Z,-95.15
2022-10-12T03:34:39.924Z,-95.02
2022-10-12T03:35:39.903Z,-94.92
2022-10-12T03:36:39.935Z,-94.91
2022-10-12T03:37:40.324Z,-94.77
2022-10-12T03:38:39.886Z,-94.73
2022-10-12T03:39:39.856Z,-94.78
2022-10-12T03:40:42.865Z,-94.70
2022-10-12T03:41:42.845Z,-94.51
2022-10-12T03:42:39.824Z,-94.57
2022-10-12T03:43:39.825Z,-94.60
2022-10-12T03:44:39.815Z,-94.65
2022-10-12T03:45:39.786Z,-94.60
2022-10-12T03:46:39.768Z,-94.50
2022-10-12T03:47:40.216Z,-94.25
2022-10-12T03:48:39.747Z,-94.31
2022-10-12T03:49:39.748Z,-94.41
2022-10-12T03:50:39.766Z,-94.65
2022-10-12T03:51:39.706Z,-94.76
2022-10-12T03:52:39.708Z,-94.84
2022-10-12T03:53:44.998Z,-94.99
2022-10-12T03:54:40.669Z,-94.96
2022-10-12T03:55:39.649Z,-94.95
2022-10-12T03:56:39.659Z,-95.00
2022-10-12T03:57:40.022Z,-94.94
2022-10-12T03:58:39.608Z,-95.06
2022-10-12T03:59:39.582Z,-95.14
2022-10-12T04:00:42.568Z,-95.33
2022-10-12T04:01:42.658Z,-95.23
2022-10-12T04:02:39.552Z,-95.51
2022-10-12T04:03:39.541Z,-95.62
2022-10-12T04:04:39.510Z,-95.50
2022-10-12T04:05:39.551Z,-95.48
2022-10-12T04:06:39.482Z,-95.34
2022-10-12T04:07:39.793Z,-95.35
2022-10-12T04:08:40.329Z,-95.26
2022-10-12T04:09:39.432Z,-95.16
2022-10-12T04:10:39.432Z,-95.09
2022-10-12T04:11:39.462Z,-95.15
2022-10-12T04:12:39.413Z,-94.79
2022-10-12T04:13:39.402Z,-94.73
2022-10-12T04:14:39.366Z,-94.57
2022-10-12T04:15:39.353Z,-94.54
2022-10-12T04:16:39.393Z,-94.25
2022-10-12T04:17:39.788Z,-94.40
2022-10-12T04:18:39.350Z,-94.19
2022-10-12T04:19:39.294Z,-92.87
2022-10-12T04:20:42.335Z,-92.81
2022-10-12T04:21:42.305Z,-92.46
2022-10-12T04:22:39.266Z,-92.28
2022-10-12T04:23:39.255Z,-92.18
2022-10-12T04:24:39.243Z,-92.27
2022-10-12T04:25:39.306Z,-92.04
2022-10-12T04:26:39.219Z,-91.95
2022-10-12T04:27:39.775Z,-92.00
2022-10-12T04:28:39.242Z,-91.54
2022-10-12T04:29:39.182Z,-91.50
2022-10-12T04:30:39.166Z,-90.13
2022-10-12T04:31:39.175Z,-89.96
2022-10-12T04:32:39.129Z,-89.84
2022-10-12T04:33:39.127Z,-89.77
2022-10-12T04:34:39.120Z,-89.69
2022-10-12T04:35:39.078Z,-89.73
2022-10-12T04:36:39.068Z,-89.75
2022-10-12T04:37:39.430Z,-89.58
2022-10-12T04:38:39.040Z,-89.52
2022-10-12T04:39:39.037Z,-89.56
2022-10-12T04:40:42.009Z,-89.60
2022-10-12T04:41:42.016Z,-89.35
2022-10-12T04:42:39.016Z,-89.42
2022-10-12T04:43:39.011Z,-89.34
2022-10-12T04:44:38.960Z,-89.24
2022-10-12T04:45:38.958Z,-89.31
2022-10-12T04:46:38.919Z,-89.29
2022-10-12T04:47:39.413Z,-89.30
2022-10-12T04:48:38.901Z,-89.22
2022-10-12T04:49:38.911Z,-89.35
2022-10-12T04:50:38.891Z,-89.25
2022-10-12T04:51:38.863Z,-89.23
2022-10-12T04:52:38.852Z,-89.15
2022-10-12T04:53:38.835Z,-89.23
2022-10-12T04:54:38.892Z,-89.20
2022-10-12T04:55:38.811Z,-89.08
2022-10-12T04:56:38.793Z,-89.05
2022-10-12T04:57:38.978Z,-88.93
2022-10-12T04:58:38.793Z,-88.92
2022-10-12T04:59:38.748Z,-88.85
2022-10-12T05:00:41.784Z,-87.57
2022-10-12T05:01:41.851Z,-87.35
2022-10-12T05:02:38.713Z,-87.27
2022-10-12T05:03:41.985Z,-87.21
2022-10-12T05:04:38.708Z,-87.23
2022-10-12T05:05:38.694Z,-87.16
2022-10-12T05:06:38.703Z,-87.04
2022-10-12T05:07:39.078Z,-86.82
2022-10-12T05:08:38.675Z,-86.68
2022-10-12T05:09:38.616Z,-86.68
2022-10-12T05:10:38.597Z,-86.59
2022-10-12T05:11:38.585Z,-86.53
2022-10-12T05:12:39.000Z,-86.57
2022-10-12T05:13:38.566Z,-85.21
2022-10-12T05:14:38.549Z,-84.97
2022-10-12T05:15:38.546Z,-84.90
2022-10-12T05:16:38.526Z,-84.81
2022-10-12T05:17:39.025Z,-84.62
2022-10-12T05:18:38.507Z,-84.59
2022-10-12T05:19:38.487Z,-84.65
2022-10-12T05:20:41.482Z,-84.52
2022-10-12T05:21:41.499Z,-84.39
2022-10-12T05:22:38.439Z,-84.32
2022-10-12T05:23:38.457Z,-84.47
2022-10-12T05:24:38.440Z,-84.30
2022-10-12T05:25:38.478Z,-84.39
2022-10-12T05:26:38.389Z,-84.48
2022-10-12T05:27:38.856Z,-84.39
2022-10-12T05:28:41.111Z,-84.40
2022-10-12T05:29:38.358Z,-84.37
2022-10-12T05:30:38.349Z,-84.32
2022-10-12T05:31:38.364Z,-84.27
2022-10-12T05:32:38.681Z,-84.19
2022-10-12T05:33:38.290Z,-82.94
2022-10-12T05:34:38.282Z,-84.22
2022-10-12T05:35:38.271Z,-84.23
2022-10-12T05:36:38.261Z,-84.18
2022-10-12T05:37:38.607Z,-84.32
2022-10-12T05:38:38.246Z,-84.28
2022-10-12T05:39:38.211Z,-84.28
2022-10-12T05:40:41.222Z,-84.33
2022-10-12T05:41:41.203Z,-84.29
2022-10-12T05:42:38.515Z,-84.22
2022-10-12T05:43:38.217Z,-84.15
2022-10-12T05:44:38.223Z,-84.31
2022-10-12T05:45:38.136Z,-84.26
2022-10-12T05:46:38.153Z,-84.30
2022-10-12T05:47:38.366Z,-84.23
2022-10-12T05:48:38.102Z,-82.90
2022-10-12T05:49:38.076Z,-82.96
2022-10-12T05:50:45.628Z,-84.18
2022-10-12T05:51:38.038Z,-82.96
2022-10-12T05:52:38.306Z,-84.24
2022-10-12T05:53:38.014Z,-84.24
2022-10-12T05:54:38.005Z,-84.27
2022-10-12T05:55:37.987Z,-84.24
2022-10-12T05:56:38.047Z,-84.18
2022-10-12T05:57:37.972Z,-84.22
2022-10-12T05:58:37.949Z,-84.16
2022-10-12T05:59:37.938Z,-84.18
2022-10-12T06:00:40.941Z,-84.28
2022-10-12T06:01:41.015Z,-82.84
2022-10-12T06:02:38.223Z,-82.98
2022-10-12T06:03:38.037Z,-84.27
2022-10-12T06:04:37.870Z,-84.33
2022-10-12T06:05:37.865Z,-84.43
2022-10-12T06:06:37.840Z,-84.38
2022-10-12T06:07:37.862Z,-84.47
2022-10-12T06:08:37.818Z,-84.57
2022-10-12T06:09:37.807Z,-84.62
2022-10-12T06:10:37.812Z,-84.61
2022-10-12T06:11:37.771Z,-84.67
2022-10-12T06:12:38.026Z,-84.79
2022-10-12T06:13:37.802Z,-84.64
2022-10-12T06:14:37.753Z,-84.83
2022-10-12T06:15:37.723Z,-85.00
2022-10-12T06:16:37.726Z,-85.15
2022-10-12T06:17:37.700Z,-86.60
2022-10-12T06:18:37.689Z,-85.15
2022-10-12T06:19:37.710Z,-86.56
2022-10-12T06:20:40.656Z,-86.60
2022-10-12T06:21:40.662Z,-86.61
2022-10-12T06:22:38.007Z,-86.70
2022-10-12T06:23:37.623Z,-86.88
2022-10-12T06:24:37.616Z,-86.93
2022-10-12T06:25:37.654Z,-86.87
2022-10-12T06:26:37.574Z,-87.01
2022-10-12T06:27:37.595Z,-86.98
2022-10-12T06:28:37.607Z,-86.99
2022-10-12T06:29:37.535Z,-87.17
2022-10-12T06:30:37.529Z,-87.14
2022-10-12T06:31:37.756Z,-87.22
2022-10-12T06:32:37.787Z,-87.31
2022-10-12T06:33:37.489Z,-87.19
2022-10-12T06:34:37.468Z,-87.26
2022-10-12T06:35:37.465Z,-87.29
2022-10-12T06:36:37.440Z,-87.34
2022-10-12T06:37:49.588Z,-87.15
2022-10-12T06:38:38.406Z,-87.41
2022-10-12T06:39:37.407Z,-87.55
2022-10-12T06:40:40.387Z,-89.13
2022-10-12T06:41:40.386Z,-89.04
2022-10-12T06:42:37.728Z,-89.06
2022-10-12T06:43:37.368Z,-89.47
2022-10-12T06:44:37.377Z,-90.11
2022-10-12T06:45:37.318Z,-91.70
2022-10-12T06:46:37.298Z,-91.98
2022-10-12T06:47:37.287Z,-92.21
2022-10-12T06:48:37.270Z,-92.25
2022-10-12T06:49:37.258Z,-92.62
2022-10-12T06:50:37.298Z,-94.13
2022-10-12T06:51:37.232Z,-94.48
2022-10-12T06:52:37.460Z,-94.70
2022-10-12T06:53:37.207Z,-94.77
2022-10-12T06:54:37.189Z,-95.00
2022-10-12T06:55:37.181Z,-95.08
2022-10-12T06:56:37.187Z,-95.14
2022-10-12T06:57:37.147Z,-95.45
2022-10-12T06:58:37.129Z,-95.55
2022-10-12T06:59:37.127Z,-95.61
2022-10-12T07:00:40.108Z,-97.21
2022-10-12T07:01:40.261Z,-97.11
2022-10-12T07:02:37.354Z,-97.41
2022-10-12T07:03:37.064Z,-97.53
2022-10-12T07:04:37.050Z,-97.68
2022-10-12T07:05:37.045Z,-97.83
2022-10-12T07:06:37.045Z,-97.91
2022-10-12T07:07:37.011Z,-98.09
2022-10-12T07:08:36.993Z,-98.09
2022-10-12T07:09:36.982Z,-98.37
2022-10-12T07:10:36.964Z,-98.33
2022-10-12T07:11:37.022Z,-98.30
2022-10-12T07:12:37.274Z,-98.44
2022-10-12T07:13:36.924Z,-98.69
2022-10-12T07:14:36.911Z,-98.75
2022-10-12T07:15:36.893Z,-98.77
2022-10-12T07:16:36.885Z,-98.88
2022-10-12T07:17:37.157Z,-98.93
2022-10-12T07:18:36.857Z,-100.34
2022-10-12T07:19:36.844Z,-100.50
2022-10-12T07:20:39.855Z,-100.72
2022-10-12T07:21:39.830Z,-100.64
2022-10-12T07:22:36.794Z,-100.78
2022-10-12T07:23:36.805Z,-101.18
2022-10-12T07:24:36.767Z,-101.32
2022-10-12T07:25:36.755Z,-101.49
2022-10-12T07:26:36.765Z,-101.42
2022-10-12T07:27:37.014Z,-101.61
2022-10-12T07:28:36.748Z,-101.75
2022-10-12T07:29:36.697Z,-101.97
2022-10-12T07:30:36.710Z,-102.00
2022-10-12T07:31:36.697Z,-102.22
2022-10-12T07:32:36.658Z,-101.89
2022-10-12T07:33:36.729Z,-102.13
2022-10-12T07:34:36.664Z,-102.11
2022-10-12T07:35:51.423Z,-102.07
2022-10-12T07:36:58.017Z,-102.47
2022-10-12T07:37:37.875Z,-102.83
2022-10-12T07:38:36.578Z,-102.93
2022-10-12T07:39:36.568Z,-104.33
2022-10-12T07:40:39.598Z,-104.66
2022-10-12T07:41:39.559Z,-104.22
2022-10-12T07:42:48.876Z,-104.66
2022-10-12T07:43:37.509Z,-104.87
2022-10-12T07:44:36.500Z,-105.04
2022-10-12T07:45:37.430Z,-105.13
2022-10-12T07:46:36.511Z,-105.42
2022-10-12T07:47:36.709Z,-105.44
2022-10-12T07:48:36.449Z,-105.70
2022-10-12T07:49:36.431Z,-106.03
2022-10-12T07:50:36.431Z,-106.17
2022-10-12T07:51:36.403Z,-106.35
2022-10-12T07:52:36.449Z,-106.62
2022-10-12T07:53:36.371Z,-106.72
2022-10-12T07:54:36.361Z,-106.83
2022-10-12T07:55:36.351Z,-107.28
2022-10-12T07:56:36.346Z,-107.34
2022-10-12T07:57:36.673Z,-107.32
2022-10-12T07:58:36.373Z,-107.49
2022-10-12T07:59:36.310Z,-107.85
2022-10-12T08:00:39.284Z,-108.11
2022-10-12T08:01:39.327Z,-107.92
2022-10-12T08:02:36.254Z,-108.26
2022-10-12T08:03:36.256Z,-108.50
2022-10-12T08:04:36.256Z,-108.77
2022-10-12T08:05:36.214Z,-108.85
2022-10-12T08:06:36.249Z,-109.03
2022-10-12T08:07:36.544Z,-109.11
2022-10-12T08:08:36.192Z,-109.38
2022-10-12T08:09:36.176Z,-109.68
2022-10-12T08:10:36.146Z,-110.11
2022-10-12T08:11:36.136Z,-109.90
2022-10-12T08:12:36.195Z,-110.52
2022-10-12T08:13:36.107Z,-110.70
2022-10-12T08:14:36.096Z,-111.02
2022-10-12T08:15:36.077Z,-111.44
2022-10-12T08:16:36.184Z,-111.65
2022-10-12T08:17:36.288Z,-112.04
2022-10-12T08:18:36.137Z,-112.24
2022-10-12T08:19:36.028Z,-112.54
2022-10-12T08:20:39.087Z,-112.86
2022-10-12T08:21:39.179Z,-113.00
2022-10-12T08:22:35.988Z,-113.10
2022-10-12T08:23:35.976Z,-113.34
2022-10-12T08:24:35.969Z,-113.40
2022-10-12T08:25:35.949Z,-113.79
2022-10-12T08:26:35.951Z,-114.07
2022-10-12T08:27:36.156Z,-114.38
2022-10-12T08:28:35.976Z,-114.57
2022-10-12T08:29:35.898Z,-114.74
2022-10-12T08:30:35.881Z,-115.02
2022-10-12T08:31:35.870Z,-115.37
2022-10-12T08:32:35.851Z,-115.70
2022-10-12T08:33:35.870Z,-116.20
2022-10-12T08:34:35.821Z,-116.45
2022-10-12T08:35:35.811Z,-117.12
2022-10-12T08:36:35.937Z,-117.22
2022-10-12T08:37:35.895Z,-117.18
2022-10-12T08:38:35.771Z,-117.67
2022-10-12T08:39:35.757Z,-117.72
2022-10-12T08:40:38.743Z,-117.56
2022-10-12T08:41:38.774Z,-117.54
2022-10-12T08:42:35.713Z,-118.02
2022-10-12T08:43:35.704Z,-118.06
2022-10-12T08:44:35.683Z,-118.44
2022-10-12T08:45:35.675Z,-118.83
2022-10-12T08:46:35.866Z,-119.22
2022-10-12T08:47:35.685Z,-119.18
2022-10-12T08:48:35.633Z,-118.99
2022-10-12T08:49:35.616Z,-119.10
2022-10-12T08:50:35.605Z,-119.83
2022-10-12T08:51:35.596Z,-120.50
2022-10-12T08:52:35.608Z,-120.88
2022-10-12T08:53:35.575Z,-121.15
2022-10-12T08:54:35.556Z,-121.19
2022-10-12T08:55:35.568Z,-121.41
2022-10-12T08:56:35.517Z,-121.71
2022-10-12T08:57:35.542Z,-122.22
2022-10-12T08:58:35.499Z,-122.67
2022-10-12T08:59:35.485Z,-123.13
2022-10-12T09:00:38.482Z,-123.64
2022-10-12T09:01:38.568Z,-123.82
2022-10-12T09:02:35.476Z,-124.13
2022-10-12T09:03:35.521Z,-124.35
2022-10-12T09:04:35.546Z,-125.12
2022-10-12T09:05:35.428Z,-125.36
2022-10-12T09:06:35.390Z,-126.01
2022-10-12T09:07:35.430Z,-126.03
2022-10-12T09:08:35.441Z,-127.14
2022-10-12T09:09:37.988Z,-127.24
2022-10-12T09:10:36.330Z,-127.24
2022-10-12T09:11:35.320Z,-127.24
2022-10-12T09:12:35.311Z,-128.46
2022-10-12T09:13:35.400Z,-128.40
2022-10-12T09:14:35.397Z,-128.24
2022-10-12T09:15:35.338Z,-128.46
2022-10-12T09:16:35.490Z,-128.46
2022-10-12T09:17:35.322Z,-128.46
2022-10-12T09:18:40.467Z,-129.68
2022-10-12T09:19:36.403Z,-129.68
2022-10-12T09:20:38.203Z,-129.68
2022-10-12T09:21:38.363Z,-129.68
2022-10-12T09:22:35.334Z,-129.68
2022-10-12T09:23:35.575Z,-129.68
2022-10-12T09:24:35.430Z,-130.90
2022-10-12T09:25:35.255Z,-130.90
2022-10-12T09:26:35.168Z,-130.90
2022-10-12T09:27:35.116Z,-130.90
2022-10-12T09:28:35.544Z,-132.12
2022-10-12T09:29:35.204Z,-132.12
2022-10-12T09:30:35.135Z,-132.12
2022-10-12T09:31:35.058Z,-132.12
2022-10-12T09:32:35.049Z,-132.12
2022-10-12T09:33:35.036Z,-133.34
2022-10-12T09:34:35.029Z,-133.34
2022-10-12T09:35:35.012Z,-133.34
2022-10-12T09:36:35.017Z,-134.56
2022-10-12T09:37:35.009Z,-134.56
2022-10-12T09:38:35.068Z,-134.56
2022-10-12T09:39:34.949Z,-134.56
2022-10-12T09:40:37.940Z,-134.56
2022-10-12T09:41:37.968Z,-135.77
2022-10-12T09:42:34.909Z,-135.77
2022-10-12T09:43:34.957Z,-136.99
2022-10-12T09:44:34.888Z,-135.77
2022-10-12T09:45:34.873Z,-136.99
2022-10-12T09:46:34.860Z,-136.99
2022-10-12T09:47:34.850Z,-136.99
2022-10-12T09:48:34.870Z,-136.99
2022-10-12T09:49:34.811Z,-136.99
2022-10-12T09:50:34.806Z,-138.21
2022-10-12T09:51:34.782Z,-138.21
2022-10-12T09:52:34.762Z,-138.21
2022-10-12T09:53:34.774Z,-138.21
2022-10-12T09:54:34.844Z,-138.21
2022-10-12T09:55:34.779Z,-138.21
2022-10-12T09:56:34.709Z,-138.21
2022-10-12T09:57:34.795Z,-139.43
2022-10-12T09:58:34.802Z,-139.43
2022-10-12T09:59:34.668Z,-139.43
2022-10-12T10:00:37.725Z,-139.43
2022-10-12T10:01:37.692Z,-139.43
2022-10-12T10:02:34.634Z,-139.43
2022-10-12T10:03:34.617Z,-140.65
2022-10-12T10:04:34.607Z,-140.65
2022-10-12T10:05:34.597Z,-141.87
2022-10-12T10:06:34.617Z,-141.87
2022-10-12T10:07:34.607Z,-141.87
2022-10-12T10:08:34.536Z,-141.87
2022-10-12T10:09:34.655Z,-141.87
2022-10-12T10:10:34.518Z,-141.87
2022-10-12T10:11:34.499Z,-141.87
2022-10-12T10:12:34.487Z,-141.87
2022-10-12T10:13:34.470Z,-141.87
2022-10-12T10:14:34.479Z,-141.87
2022-10-12T10:15:34.551Z,-141.87
2022-10-12T10:16:34.619Z,-143.08
2022-10-12T10:17:34.490Z,-143.08
2022-10-12T10:18:34.471Z,-143.08
2022-10-12T10:19:34.391Z,-143.08
2022-10-12T10:20:37.372Z,-143.08
2022-10-12T10:21:37.433Z,-143.08
2022-10-12T10:22:34.349Z,-143.08
2022-10-12T10:23:34.334Z,-143.08
2022-10-12T10:24:34.322Z,-143.08
2022-10-12T10:25:34.303Z,-143.08
2022-10-12T10:26:34.293Z,-143.08
2022-10-12T10:27:34.335Z,-143.08
2022-10-12T10:28:34.312Z,-143.08
2022-10-12T10:29:34.267Z,-143.08
2022-10-12T10:30:39.715Z,-143.08
2022-10-12T10:31:35.229Z,-143.08
2022-10-12T10:32:34.207Z,-143.08
2022-10-12T10:33:34.229Z,-144.30
2022-10-12T10:34:34.205Z,-144.30
2022-10-12T10:35:34.178Z,-144.30
2022-10-12T10:36:34.239Z,-144.30
2022-10-12T10:37:34.151Z,-144.30
2022-10-12T10:38:34.149Z,-144.30
2022-10-12T10:39:34.199Z,-144.30
2022-10-12T10:40:37.129Z,-145.52
2022-10-12T10:41:37.171Z,-144.30
2022-10-12T10:42:34.078Z,-144.30
2022-10-12T10:43:34.060Z,-145.52
2022-10-12T10:44:34.089Z,-145.52
2022-10-12T10:45:34.071Z,-145.52
2022-10-12T10:46:34.036Z,-145.52
2022-10-12T10:47:34.073Z,-145.52
2022-10-12T10:48:34.005Z,-146.74
2022-10-12T10:49:33.987Z,-146.74
2022-10-12T10:50:33.996Z,-146.74
2022-10-12T10:51:33.948Z,-145.52
2022-10-12T10:52:33.939Z,-146.74
2022-10-12T10:53:33.927Z,-146.74
2022-10-12T10:54:33.917Z,-146.74
2022-10-12T10:55:33.950Z,-146.74
2022-10-12T10:56:33.891Z,-146.74
2022-10-12T10:57:33.869Z,-146.74
2022-10-12T10:58:33.889Z,-146.74
2022-10-12T10:59:33.848Z,-146.74
2022-10-12T11:00:40.277Z,-146.74
2022-10-12T11:01:36.861Z,-146.74
2022-10-12T11:02:33.810Z,-147.96
2022-10-12T11:03:33.789Z,-147.96
2022-10-12T11:04:33.827Z,-147.96
2022-10-12T11:05:33.771Z,-147.96
2022-10-12T11:06:33.803Z,-147.96
2022-10-12T11:07:33.734Z,-149.17
2022-10-12T11:08:33.723Z,-149.17
2022-10-12T11:09:33.705Z,-149.17
2022-10-12T11:10:33.703Z,-149.17
2022-10-12T11:11:33.682Z,-149.17
2022-10-12T11:12:33.724Z,-149.17
2022-10-12T11:13:33.654Z,-147.96
2022-10-12T11:14:33.644Z,-147.96
2022-10-12T11:15:33.628Z,-149.17
2022-10-12T11:16:33.678Z,-149.17
2022-10-12T11:17:33.596Z,-149.17
2022-10-12T11:18:33.586Z,-149.17
2022-10-12T11:19:33.577Z,-149.17
2022-10-12T11:20:36.557Z,-147.96
2022-10-12T11:21:36.607Z,-147.96
2022-10-12T11:22:33.535Z,-147.96
2022-10-12T11:23:33.515Z,-147.96
2022-10-12T11:24:33.513Z,-147.96
2022-10-12T11:25:33.487Z,-149.17
2022-10-12T11:26:33.479Z,-149.17
2022-10-12T11:27:33.489Z,-149.17
2022-10-12T11:28:33.540Z,-149.17
2022-10-12T11:29:33.441Z,-150.39
2022-10-12T11:30:33.420Z,-150.39
2022-10-12T11:31:33.460Z,-150.39
2022-10-12T11:32:33.402Z,-150.39
2022-10-12T11:33:33.381Z,-150.39
2022-10-12T11:34:33.371Z,-150.39
2022-10-12T11:35:33.351Z,-150.39
2022-10-12T11:36:33.348Z,-150.39
2022-10-12T11:37:33.361Z,-150.39
2022-10-12T11:38:33.361Z,-150.39
2022-10-12T11:39:33.294Z,-150.39
2022-10-12T11:41:00.277Z,-150.39
2022-10-12T11:41:37.361Z,-150.39
2022-10-12T11:42:33.283Z,-150.39
2022-10-12T11:43:33.244Z,-150.39
2022-10-12T11:44:33.251Z,-150.39
2022-10-12T11:45:33.245Z,-150.39
2022-10-12T11:46:33.205Z,-150.39
2022-10-12T11:47:33.234Z,-151.61
2022-10-12T11:48:33.177Z,-151.61
2022-10-12T11:49:33.159Z,-151.61
2022-10-12T11:50:33.180Z,-151.61
2022-10-12T11:51:33.129Z,-151.61
2022-10-12T11:52:33.117Z,-151.61
2022-10-12T11:53:33.108Z,-151.61
2022-10-12T11:54:33.096Z,-151.61
2022-10-12T11:55:33.099Z,-151.61
2022-10-12T11:56:33.081Z,-151.61
2022-10-12T11:57:33.054Z,-151.61
2022-10-12T11:58:55.974Z,-151.61
2022-10-12T11:59:34.021Z,-151.61
2022-10-12T12:00:36.079Z,-152.83
2022-10-12T12:01:36.016Z,-151.61
2022-10-12T12:02:32.982Z,-151.61
2022-10-12T12:03:33.033Z,-151.61
2022-10-12T12:04:48.464Z,-151.61
2022-10-12T12:05:33.944Z,-151.61
2022-10-12T12:06:32.963Z,-151.61
2022-10-12T12:07:32.916Z,-151.61
2022-10-12T12:08:32.905Z,-151.61
2022-10-12T12:09:32.901Z,-152.83
2022-10-12T12:10:32.937Z,-151.61
2022-10-12T12:11:32.868Z,-152.83
2022-10-12T12:12:32.857Z,-152.83
2022-10-12T12:13:32.830Z,-152.83